sensor_id;sensor_type;location;lat;lon;timestamp;temperature;humidity
10980;DHT22;5543;51.734;8.744;2022-09-03T00:00:19;16.70;65.30
10980;DHT22;5543;51.734;8.744;2022-09-03T00:02:56;16.60;65.60
10980;DHT22;5543;51.734;8.744;2022-09-03T00:05:34;16.50;66.00
10980;DHT22;5543;51.734;8.744;2022-09-03T00:08:10;16.40;66.20
10980;DHT22;5543;51.734;8.744;2022-09-03T00:10:44;16.40;65.00
10980;DHT22;5543;51.734;8.744;2022-09-03T00:13:16;16.40;65.80
10980;DHT22;5543;51.734;8.744;2022-09-03T00:15:49;16.40;65.60
10980;DHT22;5543;51.734;8.744;2022-09-03T00:18:20;16.30;66.30
10980;DHT22;5543;51.734;8.744;2022-09-03T00:20:53;16.30;66.60
10980;DHT22;5543;51.734;8.744;2022-09-03T00:23:25;16.20;66.50
10980;DHT22;5543;51.734;8.744;2022-09-03T00:25:57;16.20;66.20
10980;DHT22;5543;51.734;8.744;2022-09-03T00:28:33;16.20;66.40
10980;DHT22;5543;51.734;8.744;2022-09-03T00:31:09;16.20;66.00
10980;DHT22;5543;51.734;8.744;2022-09-03T00:33:40;16.20;66.50
10980;DHT22;5543;51.734;8.744;2022-09-03T00:36:14;16.20;66.50
10980;DHT22;5543;51.734;8.744;2022-09-03T00:38:44;16.20;66.80
10980;DHT22;5543;51.734;8.744;2022-09-03T00:41:23;16.10;66.30
10980;DHT22;5543;51.734;8.744;2022-09-03T00:44:22;16.10;66.10
10980;DHT22;5543;51.734;8.744;2022-09-03T00:46:56;16.20;65.90
10980;DHT22;5543;51.734;8.744;2022-09-03T00:49:40;16.10;66.40
10980;DHT22;5543;51.734;8.744;2022-09-03T00:52:17;16.10;66.80
10980;DHT22;5543;51.734;8.744;2022-09-03T00:54:58;16.10;67.60
10980;DHT22;5543;51.734;8.744;2022-09-03T00:57:37;16.00;68.40
10980;DHT22;5543;51.734;8.744;2022-09-03T01:00:09;15.90;68.40
10980;DHT22;5543;51.734;8.744;2022-09-03T01:02:53;15.80;68.60
10980;DHT22;5543;51.734;8.744;2022-09-03T01:05:34;15.70;67.60
10980;DHT22;5543;51.734;8.744;2022-09-03T01:08:24;15.70;68.30
10980;DHT22;5543;51.734;8.744;2022-09-03T01:11:10;15.70;69.60
10980;DHT22;5543;51.734;8.744;2022-09-03T01:13:51;15.70;68.90
10980;DHT22;5543;51.734;8.744;2022-09-03T01:16:30;15.60;69.00
10980;DHT22;5543;51.734;8.744;2022-09-03T01:19:10;15.60;69.50
10980;DHT22;5543;51.734;8.744;2022-09-03T01:21:59;15.50;69.40
10980;DHT22;5543;51.734;8.744;2022-09-03T01:24:53;15.40;69.20
10980;DHT22;5543;51.734;8.744;2022-09-03T01:27:39;15.40;69.10
10980;DHT22;5543;51.734;8.744;2022-09-03T01:30:12;15.50;69.40
10980;DHT22;5543;51.734;8.744;2022-09-03T01:32:47;15.50;68.60
10980;DHT22;5543;51.734;8.744;2022-09-03T01:35:22;15.50;68.70
10980;DHT22;5543;51.734;8.744;2022-09-03T01:38:04;15.60;68.90
10980;DHT22;5543;51.734;8.744;2022-09-03T01:40:44;15.50;68.30
10980;DHT22;5543;51.734;8.744;2022-09-03T01:43:31;15.60;68.10
10980;DHT22;5543;51.734;8.744;2022-09-03T01:46:09;15.60;68.60
10980;DHT22;5543;51.734;8.744;2022-09-03T01:48:44;15.60;69.00
10980;DHT22;5543;51.734;8.744;2022-09-03T01:51:19;15.30;68.70
10980;DHT22;5543;51.734;8.744;2022-09-03T01:54:01;15.50;68.80
10980;DHT22;5543;51.734;8.744;2022-09-03T01:56:49;15.50;68.90
10980;DHT22;5543;51.734;8.744;2022-09-03T01:59:27;15.50;68.80
10980;DHT22;5543;51.734;8.744;2022-09-03T02:02:02;15.50;68.50
10980;DHT22;5543;51.734;8.744;2022-09-03T02:04:32;15.50;68.60
10980;DHT22;5543;51.734;8.744;2022-09-03T02:07:01;15.50;70.00
10980;DHT22;5543;51.734;8.744;2022-09-03T02:09:29;15.40;70.10
10980;DHT22;5543;51.734;8.744;2022-09-03T02:12:04;15.30;70.30
10980;DHT22;5543;51.734;8.744;2022-09-03T02:14:34;15.30;69.90
10980;DHT22;5543;51.734;8.744;2022-09-03T02:17:05;15.30;70.50
10980;DHT22;5543;51.734;8.744;2022-09-03T02:19:34;15.20;70.10
10980;DHT22;5543;51.734;8.744;2022-09-03T02:22:04;15.20;70.60
10980;DHT22;5543;51.734;8.744;2022-09-03T02:24:32;15.20;71.10
10980;DHT22;5543;51.734;8.744;2022-09-03T02:27:00;15.20;70.20
10980;DHT22;5543;51.734;8.744;2022-09-03T02:29:29;15.20;69.90
10980;DHT22;5543;51.734;8.744;2022-09-03T02:31:57;15.20;70.10
10980;DHT22;5543;51.734;8.744;2022-09-03T02:34:27;15.20;70.20
10980;DHT22;5543;51.734;8.744;2022-09-03T02:36:55;15.20;71.00
10980;DHT22;5543;51.734;8.744;2022-09-03T02:39:23;15.20;71.50
10980;DHT22;5543;51.734;8.744;2022-09-03T02:41:54;15.10;71.30
10980;DHT22;5543;51.734;8.744;2022-09-03T02:44:26;15.10;70.20
10980;DHT22;5543;51.734;8.744;2022-09-03T02:46:58;15.10;70.70
10980;DHT22;5543;51.734;8.744;2022-09-03T02:49:28;15.10;70.70
10980;DHT22;5543;51.734;8.744;2022-09-03T02:51:58;15.10;70.70
10980;DHT22;5543;51.734;8.744;2022-09-03T02:54:26;15.10;71.10
10980;DHT22;5543;51.734;8.744;2022-09-03T02:56:54;15.10;70.90
10980;DHT22;5543;51.734;8.744;2022-09-03T02:59:23;15.10;71.10
10980;DHT22;5543;51.734;8.744;2022-09-03T03:01:54;15.00;71.90
10980;DHT22;5543;51.734;8.744;2022-09-03T03:04:28;15.00;71.00
10980;DHT22;5543;51.734;8.744;2022-09-03T03:06:56;15.00;71.70
10980;DHT22;5543;51.734;8.744;2022-09-03T03:09:25;15.00;71.20
10980;DHT22;5543;51.734;8.744;2022-09-03T03:11:53;15.00;71.80
10980;DHT22;5543;51.734;8.744;2022-09-03T03:14:22;14.80;71.40
10980;DHT22;5543;51.734;8.744;2022-09-03T03:16:50;15.00;71.20
10980;DHT22;5543;51.734;8.744;2022-09-03T03:19:18;15.00;70.90
10980;DHT22;5543;51.734;8.744;2022-09-03T03:21:48;15.00;71.80
10980;DHT22;5543;51.734;8.744;2022-09-03T03:24:16;15.00;70.90
10980;DHT22;5543;51.734;8.744;2022-09-03T03:26:44;15.00;71.30
10980;DHT22;5543;51.734;8.744;2022-09-03T03:29:14;15.00;72.60
10980;DHT22;5543;51.734;8.744;2022-09-03T03:31:44;14.90;72.40
10980;DHT22;5543;51.734;8.744;2022-09-03T03:34:12;14.90;71.40
10980;DHT22;5543;51.734;8.744;2022-09-03T03:36:40;14.90;71.60
10980;DHT22;5543;51.734;8.744;2022-09-03T03:39:09;14.90;71.80
10980;DHT22;5543;51.734;8.744;2022-09-03T03:41:37;14.90;72.30
10980;DHT22;5543;51.734;8.744;2022-09-03T03:44:06;14.90;72.20
10980;DHT22;5543;51.734;8.744;2022-09-03T03:46:36;14.90;72.50
10980;DHT22;5543;51.734;8.744;2022-09-03T03:49:05;14.90;71.80
10980;DHT22;5543;51.734;8.744;2022-09-03T03:51:34;14.90;71.80
10980;DHT22;5543;51.734;8.744;2022-09-03T03:54:03;14.90;72.10
10980;DHT22;5543;51.734;8.744;2022-09-03T03:56:33;14.90;71.80
10980;DHT22;5543;51.734;8.744;2022-09-03T03:59:01;14.90;72.00
10980;DHT22;5543;51.734;8.744;2022-09-03T04:01:29;14.80;71.90
10980;DHT22;5543;51.734;8.744;2022-09-03T04:03:58;14.90;72.10
10980;DHT22;5543;51.734;8.744;2022-09-03T04:06:27;14.90;72.70
10980;DHT22;5543;51.734;8.744;2022-09-03T04:08:55;14.80;71.90
10980;DHT22;5543;51.734;8.744;2022-09-03T04:11:24;14.80;72.10
10980;DHT22;5543;51.734;8.744;2022-09-03T04:13:53;14.80;72.10
10980;DHT22;5543;51.734;8.744;2022-09-03T04:16:23;14.80;72.40
10980;DHT22;5543;51.734;8.744;2022-09-03T04:18:52;14.80;72.50
10980;DHT22;5543;51.734;8.744;2022-09-03T04:21:22;14.70;72.70
10980;DHT22;5543;51.734;8.744;2022-09-03T04:23:54;14.70;72.50
10980;DHT22;5543;51.734;8.744;2022-09-03T04:26:24;14.70;72.90
10980;DHT22;5543;51.734;8.744;2022-09-03T04:28:54;14.70;73.20
10980;DHT22;5543;51.734;8.744;2022-09-03T04:31:23;14.60;73.30
10980;DHT22;5543;51.734;8.744;2022-09-03T04:33:51;14.60;73.90
10980;DHT22;5543;51.734;8.744;2022-09-03T04:36:21;14.60;73.80
10980;DHT22;5543;51.734;8.744;2022-09-03T04:38:51;14.50;73.40
10980;DHT22;5543;51.734;8.744;2022-09-03T04:41:21;14.50;74.30
10980;DHT22;5543;51.734;8.744;2022-09-03T04:43:52;14.40;75.00
10980;DHT22;5543;51.734;8.744;2022-09-03T04:46:23;14.40;74.80
10980;DHT22;5543;51.734;8.744;2022-09-03T04:48:53;14.40;74.20
10980;DHT22;5543;51.734;8.744;2022-09-03T04:51:24;14.40;74.40
10980;DHT22;5543;51.734;8.744;2022-09-03T04:53:55;14.40;74.50
10980;DHT22;5543;51.734;8.744;2022-09-03T04:56:25;14.40;74.60
10980;DHT22;5543;51.734;8.744;2022-09-03T04:58:55;14.40;75.50
10980;DHT22;5543;51.734;8.744;2022-09-03T05:01:26;14.40;74.60
10980;DHT22;5543;51.734;8.744;2022-09-03T05:03:54;14.40;74.60
10980;DHT22;5543;51.734;8.744;2022-09-03T05:06:23;14.40;74.50
10980;DHT22;5543;51.734;8.744;2022-09-03T05:08:53;14.40;75.30
10980;DHT22;5543;51.734;8.744;2022-09-03T05:11:23;14.40;75.40
10980;DHT22;5543;51.734;8.744;2022-09-03T05:13:53;14.40;75.20
10980;DHT22;5543;51.734;8.744;2022-09-03T05:16:22;14.40;75.10
10980;DHT22;5543;51.734;8.744;2022-09-03T05:18:53;14.40;75.60
10980;DHT22;5543;51.734;8.744;2022-09-03T05:21:22;14.40;75.70
10980;DHT22;5543;51.734;8.744;2022-09-03T05:23:51;14.40;76.10
10980;DHT22;5543;51.734;8.744;2022-09-03T05:26:21;14.40;76.00
10980;DHT22;5543;51.734;8.744;2022-09-03T05:28:52;14.40;75.40
10980;DHT22;5543;51.734;8.744;2022-09-03T05:31:21;14.40;76.80
10980;DHT22;5543;51.734;8.744;2022-09-03T05:33:55;14.40;77.00
10980;DHT22;5543;51.734;8.744;2022-09-03T05:36:26;14.40;77.20
10980;DHT22;5543;51.734;8.744;2022-09-03T05:38:55;14.40;77.20
10980;DHT22;5543;51.734;8.744;2022-09-03T05:41:25;14.40;78.00
10980;DHT22;5543;51.734;8.744;2022-09-03T05:43:54;14.40;78.30
10980;DHT22;5543;51.734;8.744;2022-09-03T05:46:26;14.40;78.00
10980;DHT22;5543;51.734;8.744;2022-09-03T05:48:59;14.40;78.80
10980;DHT22;5543;51.734;8.744;2022-09-03T05:51:29;14.40;79.40
10980;DHT22;5543;51.734;8.744;2022-09-03T05:53:58;14.40;78.60
10980;DHT22;5543;51.734;8.744;2022-09-03T05:56:27;14.40;78.20
10980;DHT22;5543;51.734;8.744;2022-09-03T05:58:57;14.50;79.20
10980;DHT22;5543;51.734;8.744;2022-09-03T06:01:28;14.50;79.50
10980;DHT22;5543;51.734;8.744;2022-09-03T06:04:00;14.60;80.00
10980;DHT22;5543;51.734;8.744;2022-09-03T06:06:29;14.60;80.10
10980;DHT22;5543;51.734;8.744;2022-09-03T06:08:59;14.60;80.00
10980;DHT22;5543;51.734;8.744;2022-09-03T06:11:30;14.60;80.70
10980;DHT22;5543;51.734;8.744;2022-09-03T06:14:00;14.70;81.00
10980;DHT22;5543;51.734;8.744;2022-09-03T06:16:31;14.70;81.80
10980;DHT22;5543;51.734;8.744;2022-09-03T06:19:02;14.70;81.80
10980;DHT22;5543;51.734;8.744;2022-09-03T06:21:32;14.80;81.00
10980;DHT22;5543;51.734;8.744;2022-09-03T06:24:02;14.90;81.20
10980;DHT22;5543;51.734;8.744;2022-09-03T06:26:31;15.00;81.10
10980;DHT22;5543;51.734;8.744;2022-09-03T06:29:00;15.10;80.40
10980;DHT22;5543;51.734;8.744;2022-09-03T06:31:28;15.20;79.40
10980;DHT22;5543;51.734;8.744;2022-09-03T06:33:57;15.30;78.70
10980;DHT22;5543;51.734;8.744;2022-09-03T06:36:31;15.50;78.40
10980;DHT22;5543;51.734;8.744;2022-09-03T06:38:59;15.60;77.80
10980;DHT22;5543;51.734;8.744;2022-09-03T06:41:28;15.80;78.40
10980;DHT22;5543;51.734;8.744;2022-09-03T06:44:03;15.80;77.30
10980;DHT22;5543;51.734;8.744;2022-09-03T06:46:33;16.00;77.50
10980;DHT22;5543;51.734;8.744;2022-09-03T06:49:01;16.10;76.10
10980;DHT22;5543;51.734;8.744;2022-09-03T06:51:32;16.30;77.30
10980;DHT22;5543;51.734;8.744;2022-09-03T06:54:01;16.40;77.70
10980;DHT22;5543;51.734;8.744;2022-09-03T06:56:30;16.40;76.70
10980;DHT22;5543;51.734;8.744;2022-09-03T06:59:05;16.50;75.10
10980;DHT22;5543;51.734;8.744;2022-09-03T07:01:34;16.70;75.20
10980;DHT22;5543;51.734;8.744;2022-09-03T07:04:11;16.80;75.10
10980;DHT22;5543;51.734;8.744;2022-09-03T07:06:41;16.80;74.00
10980;DHT22;5543;51.734;8.744;2022-09-03T07:09:11;17.00;72.90
10980;DHT22;5543;51.734;8.744;2022-09-03T07:11:41;17.10;73.10
10980;DHT22;5543;51.734;8.744;2022-09-03T07:14:15;17.20;72.30
10980;DHT22;5543;51.734;8.744;2022-09-03T07:16:43;17.30;72.50
10980;DHT22;5543;51.734;8.744;2022-09-03T07:19:12;17.20;73.40
10980;DHT22;5543;51.734;8.744;2022-09-03T07:21:42;17.20;74.70
10980;DHT22;5543;51.734;8.744;2022-09-03T07:24:16;17.20;74.50
10980;DHT22;5543;51.734;8.744;2022-09-03T07:26:45;17.20;73.60
10980;DHT22;5543;51.734;8.744;2022-09-03T07:29:14;17.30;73.80
10980;DHT22;5543;51.734;8.744;2022-09-03T07:31:47;17.50;72.10
10980;DHT22;5543;51.734;8.744;2022-09-03T07:34:18;17.60;71.60
10980;DHT22;5543;51.734;8.744;2022-09-03T07:36:49;17.80;71.50
10980;DHT22;5543;51.734;8.744;2022-09-03T07:39:18;18.00;72.80
10980;DHT22;5543;51.734;8.744;2022-09-03T07:41:46;18.20;72.70
10980;DHT22;5543;51.734;8.744;2022-09-03T07:44:16;18.30;71.00
10980;DHT22;5543;51.734;8.744;2022-09-03T07:46:46;18.50;69.80
10980;DHT22;5543;51.734;8.744;2022-09-03T07:49:17;18.70;70.10
10980;DHT22;5543;51.734;8.744;2022-09-03T07:51:46;18.80;69.00
10980;DHT22;5543;51.734;8.744;2022-09-03T07:54:18;18.90;72.00
10980;DHT22;5543;51.734;8.744;2022-09-03T07:56:48;19.10;70.20
10980;DHT22;5543;51.734;8.744;2022-09-03T07:59:16;19.30;71.00
10980;DHT22;5543;51.734;8.744;2022-09-03T08:01:44;19.50;71.40
10980;DHT22;5543;51.734;8.744;2022-09-03T08:04:16;19.80;69.80
10980;DHT22;5543;51.734;8.744;2022-09-03T08:06:44;20.20;69.10
10980;DHT22;5543;51.734;8.744;2022-09-03T08:09:13;20.60;68.20
10980;DHT22;5543;51.734;8.744;2022-09-03T08:11:43;20.90;64.90
10980;DHT22;5543;51.734;8.744;2022-09-03T08:14:12;21.20;66.20
10980;DHT22;5543;51.734;8.744;2022-09-03T08:16:42;21.70;66.20
10980;DHT22;5543;51.734;8.744;2022-09-03T08:19:11;22.20;64.00
10980;DHT22;5543;51.734;8.744;2022-09-03T08:21:40;22.80;64.60
10980;DHT22;5543;51.734;8.744;2022-09-03T08:24:09;23.40;62.50
10980;DHT22;5543;51.734;8.744;2022-09-03T08:26:39;24.00;62.30
10980;DHT22;5543;51.734;8.744;2022-09-03T08:29:13;24.50;58.90
10980;DHT22;5543;51.734;8.744;2022-09-03T08:31:41;24.70;59.90
10980;DHT22;5543;51.734;8.744;2022-09-03T08:34:10;25.30;60.10
10980;DHT22;5543;51.734;8.744;2022-09-03T08:36:40;25.80;57.60
10980;DHT22;5543;51.734;8.744;2022-09-03T08:39:09;26.00;56.90
10980;DHT22;5543;51.734;8.744;2022-09-03T08:41:57;26.40;55.20
10980;DHT22;5543;51.734;8.744;2022-09-03T08:44:37;26.60;54.30
10980;DHT22;5543;51.734;8.744;2022-09-03T08:47:10;26.60;53.80
10980;DHT22;5543;51.734;8.744;2022-09-03T08:49:45;27.10;55.90
10980;DHT22;5543;51.734;8.744;2022-09-03T08:52:26;27.50;57.00
10980;DHT22;5543;51.734;8.744;2022-09-03T08:55:03;27.80;54.40
10980;DHT22;5543;51.734;8.744;2022-09-03T08:57:40;28.10;52.30
10980;DHT22;5543;51.734;8.744;2022-09-03T09:00:12;28.20;50.80
10980;DHT22;5543;51.734;8.744;2022-09-03T09:02:51;28.40;52.20
10980;DHT22;5543;51.734;8.744;2022-09-03T09:05:23;28.50;49.40
10980;DHT22;5543;51.734;8.744;2022-09-03T09:07:59;28.60;49.00
10980;DHT22;5543;51.734;8.744;2022-09-03T09:10:36;28.70;48.50
10980;DHT22;5543;51.734;8.744;2022-09-03T09:13:19;28.80;50.10
10980;DHT22;5543;51.734;8.744;2022-09-03T09:16:01;29.30;49.10
10980;DHT22;5543;51.734;8.744;2022-09-03T09:18:40;29.50;48.20
10980;DHT22;5543;51.734;8.744;2022-09-03T09:21:14;29.70;49.10
10980;DHT22;5543;51.734;8.744;2022-09-03T09:23:49;29.80;48.70
10980;DHT22;5543;51.734;8.744;2022-09-03T09:26:19;30.10;48.50
10980;DHT22;5543;51.734;8.744;2022-09-03T09:28:51;29.90;48.50
10980;DHT22;5543;51.734;8.744;2022-09-03T09:31:22;28.90;48.30
10980;DHT22;5543;51.734;8.744;2022-09-03T09:33:50;28.40;50.50
10980;DHT22;5543;51.734;8.744;2022-09-03T09:36:18;28.30;49.70
10980;DHT22;5543;51.734;8.744;2022-09-03T09:38:48;27.80;49.80
10980;DHT22;5543;51.734;8.744;2022-09-03T09:41:20;27.40;52.20
10980;DHT22;5543;51.734;8.744;2022-09-03T09:43:59;27.20;52.90
10980;DHT22;5543;51.734;8.744;2022-09-03T09:46:34;27.20;54.90
10980;DHT22;5543;51.734;8.744;2022-09-03T09:49:17;27.30;52.20
10980;DHT22;5543;51.734;8.744;2022-09-03T09:52:00;27.50;52.40
10980;DHT22;5543;51.734;8.744;2022-09-03T09:54:28;27.60;53.10
10980;DHT22;5543;51.734;8.744;2022-09-03T09:57:01;27.30;50.90
10980;DHT22;5543;51.734;8.744;2022-09-03T09:59:31;27.00;52.90
10980;DHT22;5543;51.734;8.744;2022-09-03T10:02:08;26.80;54.50
10980;DHT22;5543;51.734;8.744;2022-09-03T10:04:48;26.50;54.70
10980;DHT22;5543;51.734;8.744;2022-09-03T10:07:25;26.10;52.80
10980;DHT22;5543;51.734;8.744;2022-09-03T10:10:05;25.90;54.10
10980;DHT22;5543;51.734;8.744;2022-09-03T10:12:38;26.00;59.30
10980;DHT22;5543;51.734;8.744;2022-09-03T10:15:18;25.90;55.10
10980;DHT22;5543;51.734;8.744;2022-09-03T10:17:56;25.80;56.20
10980;DHT22;5543;51.734;8.744;2022-09-03T10:20:33;25.70;56.10
10980;DHT22;5543;51.734;8.744;2022-09-03T10:23:12;25.60;54.90
10980;DHT22;5543;51.734;8.744;2022-09-03T10:25:49;25.90;55.00
10980;DHT22;5543;51.734;8.744;2022-09-03T10:28:20;26.20;54.80
10980;DHT22;5543;51.734;8.744;2022-09-03T10:31:11;26.20;52.90
10980;DHT22;5543;51.734;8.744;2022-09-03T10:33:46;26.00;53.80
10980;DHT22;5543;51.734;8.744;2022-09-03T10:36:20;25.80;54.90
10980;DHT22;5543;51.734;8.744;2022-09-03T10:38:53;25.70;55.40
10980;DHT22;5543;51.734;8.744;2022-09-03T10:41:37;25.50;55.80
10980;DHT22;5543;51.734;8.744;2022-09-03T10:44:45;25.70;56.00
10980;DHT22;5543;51.734;8.744;2022-09-03T10:47:28;25.80;55.70
10980;DHT22;5543;51.734;8.744;2022-09-03T10:50:09;25.70;54.00
10980;DHT22;5543;51.734;8.744;2022-09-03T10:53:00;25.60;53.50
10980;DHT22;5543;51.734;8.744;2022-09-03T10:55:39;25.90;56.60
10980;DHT22;5543;51.734;8.744;2022-09-03T10:58:23;26.10;55.10
10980;DHT22;5543;51.734;8.744;2022-09-03T11:01:01;26.10;54.80
10980;DHT22;5543;51.734;8.744;2022-09-03T11:03:42;26.20;53.40
10980;DHT22;5543;51.734;8.744;2022-09-03T11:06:16;26.20;55.90
10980;DHT22;5543;51.734;8.744;2022-09-03T11:08:52;26.00;52.80
10980;DHT22;5543;51.734;8.744;2022-09-03T11:11:28;25.80;53.80
10980;DHT22;5543;51.734;8.744;2022-09-03T11:14:02;26.00;56.60
10980;DHT22;5543;51.734;8.744;2022-09-03T11:16:37;26.50;55.80
10980;DHT22;5543;51.734;8.744;2022-09-03T11:19:09;27.00;57.00
10980;DHT22;5543;51.734;8.744;2022-09-03T11:21:40;27.20;54.00
10980;DHT22;5543;51.734;8.744;2022-09-03T11:24:12;27.20;54.50
10980;DHT22;5543;51.734;8.744;2022-09-03T11:26:42;27.10;53.90
10980;DHT22;5543;51.734;8.744;2022-09-03T11:29:15;27.00;54.50
10980;DHT22;5543;51.734;8.744;2022-09-03T11:31:54;26.80;53.10
10980;DHT22;5543;51.734;8.744;2022-09-03T11:34:31;26.50;51.90
10980;DHT22;5543;51.734;8.744;2022-09-03T11:37:17;26.30;55.00
10980;DHT22;5543;51.734;8.744;2022-09-03T11:39:53;26.10;53.60
10980;DHT22;5543;51.734;8.744;2022-09-03T11:42:31;26.10;51.80
10980;DHT22;5543;51.734;8.744;2022-09-03T11:45:20;26.00;52.60
10980;DHT22;5543;51.734;8.744;2022-09-03T11:47:49;26.00;53.20
10980;DHT22;5543;51.734;8.744;2022-09-03T11:50:21;25.90;52.80
10980;DHT22;5543;51.734;8.744;2022-09-03T11:52:53;25.90;54.40
10980;DHT22;5543;51.734;8.744;2022-09-03T11:55:29;25.90;53.20
10980;DHT22;5543;51.734;8.744;2022-09-03T11:58:18;26.00;53.50
10980;DHT22;5543;51.734;8.744;2022-09-03T12:00:47;26.10;54.80
10980;DHT22;5543;51.734;8.744;2022-09-03T12:03:16;26.10;55.30
10980;DHT22;5543;51.734;8.744;2022-09-03T12:05:50;26.10;52.20
10980;DHT22;5543;51.734;8.744;2022-09-03T12:11:48;25.90;52.20
10980;DHT22;5543;51.734;8.744;2022-09-03T12:14:21;26.00;55.10
10980;DHT22;5543;51.734;8.744;2022-09-03T12:17:03;25.90;52.80
10980;DHT22;5543;51.734;8.744;2022-09-03T12:19:38;25.80;53.50
10980;DHT22;5543;51.734;8.744;2022-09-03T12:22:12;25.70;52.50
10980;DHT22;5543;51.734;8.744;2022-09-03T12:24:43;25.60;53.50
10980;DHT22;5543;51.734;8.744;2022-09-03T12:27:16;25.70;55.00
10980;DHT22;5543;51.734;8.744;2022-09-03T12:29:53;25.80;54.70
10980;DHT22;5543;51.734;8.744;2022-09-03T12:32:24;25.90;55.50
10980;DHT22;5543;51.734;8.744;2022-09-03T12:34:52;26.00;54.90
10980;DHT22;5543;51.734;8.744;2022-09-03T12:37:22;26.20;55.20
10980;DHT22;5543;51.734;8.744;2022-09-03T12:40:20;26.20;53.80
10980;DHT22;5543;51.734;8.744;2022-09-03T12:42:49;26.20;54.70
10980;DHT22;5543;51.734;8.744;2022-09-03T12:45:19;26.00;52.40
10980;DHT22;5543;51.734;8.744;2022-09-03T12:47:49;25.80;53.10
10980;DHT22;5543;51.734;8.744;2022-09-03T12:50:19;25.60;53.30
10980;DHT22;5543;51.734;8.744;2022-09-03T12:52:50;25.50;53.40
10980;DHT22;5543;51.734;8.744;2022-09-03T12:55:33;25.50;53.20
10980;DHT22;5543;51.734;8.744;2022-09-03T12:58:05;25.50;54.20
10980;DHT22;5543;51.734;8.744;2022-09-03T13:00:42;25.60;54.70
10980;DHT22;5543;51.734;8.744;2022-09-03T13:03:15;25.70;52.90
10980;DHT22;5543;51.734;8.744;2022-09-03T13:05:46;25.50;51.70
10980;DHT22;5543;51.734;8.744;2022-09-03T13:08:20;25.50;52.70
10980;DHT22;5543;51.734;8.744;2022-09-03T13:10:54;25.60;52.60
10980;DHT22;5543;51.734;8.744;2022-09-03T13:13:24;25.60;53.60
10980;DHT22;5543;51.734;8.744;2022-09-03T13:16:11;25.60;53.60
10980;DHT22;5543;51.734;8.744;2022-09-03T13:18:52;25.60;55.50
10980;DHT22;5543;51.734;8.744;2022-09-03T13:21:31;25.50;55.10
10980;DHT22;5543;51.734;8.744;2022-09-03T13:24:11;25.40;53.20
10980;DHT22;5543;51.734;8.744;2022-09-03T13:26:58;25.20;54.10
10980;DHT22;5543;51.734;8.744;2022-09-03T13:29:37;25.20;53.50
10980;DHT22;5543;51.734;8.744;2022-09-03T13:32:16;25.30;53.60
10980;DHT22;5543;51.734;8.744;2022-09-03T13:34:53;25.30;54.50
10980;DHT22;5543;51.734;8.744;2022-09-03T13:37:26;25.30;55.80
10980;DHT22;5543;51.734;8.744;2022-09-03T13:40:05;25.40;56.00
10980;DHT22;5543;51.734;8.744;2022-09-03T13:42:40;25.30;52.50
10980;DHT22;5543;51.734;8.744;2022-09-03T13:45:19;25.30;53.80
10980;DHT22;5543;51.734;8.744;2022-09-03T13:47:55;25.20;55.00
10980;DHT22;5543;51.734;8.744;2022-09-03T13:50:44;25.20;56.10
10980;DHT22;5543;51.734;8.744;2022-09-03T13:53:29;25.20;54.60
10980;DHT22;5543;51.734;8.744;2022-09-03T13:56:03;25.20;52.80
10980;DHT22;5543;51.734;8.744;2022-09-03T13:58:40;25.10;54.10
10980;DHT22;5543;51.734;8.744;2022-09-03T14:01:16;25.00;55.40
10980;DHT22;5543;51.734;8.744;2022-09-03T14:03:51;25.00;53.90
10980;DHT22;5543;51.734;8.744;2022-09-03T14:06:29;24.80;55.70
10980;DHT22;5543;51.734;8.744;2022-09-03T14:09:10;24.80;55.10
10980;DHT22;5543;51.734;8.744;2022-09-03T14:11:51;24.70;55.70
10980;DHT22;5543;51.734;8.744;2022-09-03T14:14:33;24.70;56.00
10980;DHT22;5543;51.734;8.744;2022-09-03T14:17:11;24.70;57.30
10980;DHT22;5543;51.734;8.744;2022-09-03T14:19:45;24.60;56.00
10980;DHT22;5543;51.734;8.744;2022-09-03T14:22:20;24.60;55.10
10980;DHT22;5543;51.734;8.744;2022-09-03T14:24:52;24.50;55.10
10980;DHT22;5543;51.734;8.744;2022-09-03T14:27:24;24.40;56.00
10980;DHT22;5543;51.734;8.744;2022-09-03T14:29:59;24.20;55.50
10980;DHT22;5543;51.734;8.744;2022-09-03T14:32:38;24.10;55.00
10980;DHT22;5543;51.734;8.744;2022-09-03T14:35:21;24.00;55.50
10980;DHT22;5543;51.734;8.744;2022-09-03T14:38:18;23.90;55.40
10980;DHT22;5543;51.734;8.744;2022-09-03T14:41:00;23.80;56.10
10980;DHT22;5543;51.734;8.744;2022-09-03T14:43:49;23.70;56.50
10980;DHT22;5543;51.734;8.744;2022-09-03T14:46:31;23.60;55.70
10980;DHT22;5543;51.734;8.744;2022-09-03T14:49:16;23.60;55.90
10980;DHT22;5543;51.734;8.744;2022-09-03T14:51:58;23.50;56.10
10980;DHT22;5543;51.734;8.744;2022-09-03T14:57:46;23.40;56.90
10980;DHT22;5543;51.734;8.744;2022-09-03T15:00:17;23.40;56.90
10980;DHT22;5543;51.734;8.744;2022-09-03T15:05:53;23.50;56.70
10980;DHT22;5543;51.734;8.744;2022-09-03T15:08:38;23.60;57.70
10980;DHT22;5543;51.734;8.744;2022-09-03T15:11:16;23.60;56.40
10980;DHT22;5543;51.734;8.744;2022-09-03T15:13:49;23.60;56.90
10980;DHT22;5543;51.734;8.744;2022-09-03T15:16:33;23.70;56.00
10980;DHT22;5543;51.734;8.744;2022-09-03T15:19:25;23.70;56.50
10980;DHT22;5543;51.734;8.744;2022-09-03T15:22:08;23.80;58.40
10980;DHT22;5543;51.734;8.744;2022-09-03T15:24:48;23.90;56.80
10980;DHT22;5543;51.734;8.744;2022-09-03T15:27:38;24.00;58.30
10980;DHT22;5543;51.734;8.744;2022-09-03T15:30:10;24.20;58.10
10980;DHT22;5543;51.734;8.744;2022-09-03T15:32:48;24.30;59.00
10980;DHT22;5543;51.734;8.744;2022-09-03T15:38:38;24.50;56.60
10980;DHT22;5543;51.734;8.744;2022-09-03T15:41:16;24.60;57.40
10980;DHT22;5543;51.734;8.744;2022-09-03T15:43:48;24.70;56.40
10980;DHT22;5543;51.734;8.744;2022-09-03T15:46:33;24.80;56.40
10980;DHT22;5543;51.734;8.744;2022-09-03T15:49:06;24.80;55.10
10980;DHT22;5543;51.734;8.744;2022-09-03T15:51:49;24.80;53.60
10980;DHT22;5543;51.734;8.744;2022-09-03T15:54:31;24.70;54.60
10980;DHT22;5543;51.734;8.744;2022-09-03T15:57:06;24.70;56.60
10980;DHT22;5543;51.734;8.744;2022-09-03T15:59:40;24.60;55.90
10980;DHT22;5543;51.734;8.744;2022-09-03T16:02:12;24.50;55.20
10980;DHT22;5543;51.734;8.744;2022-09-03T16:04:55;24.40;56.50
10980;DHT22;5543;51.734;8.744;2022-09-03T16:10:39;24.20;56.20
10980;DHT22;5543;51.734;8.744;2022-09-03T16:13:26;24.20;56.10
10980;DHT22;5543;51.734;8.744;2022-09-03T16:16:01;24.00;56.10
10980;DHT22;5543;51.734;8.744;2022-09-03T16:18:32;24.00;56.10
10980;DHT22;5543;51.734;8.744;2022-09-03T16:21:07;23.90;57.20
10980;DHT22;5543;51.734;8.744;2022-09-03T16:23:42;23.90;56.80
10980;DHT22;5543;51.734;8.744;2022-09-03T16:26:19;23.90;57.30
10980;DHT22;5543;51.734;8.744;2022-09-03T16:28:52;23.80;57.60
10980;DHT22;5543;51.734;8.744;2022-09-03T16:31:36;23.70;55.80
10980;DHT22;5543;51.734;8.744;2022-09-03T16:34:13;23.60;56.00
10980;DHT22;5543;51.734;8.744;2022-09-03T16:36:50;23.50;56.30
10980;DHT22;5543;51.734;8.744;2022-09-03T16:39:28;23.50;57.50
10980;DHT22;5543;51.734;8.744;2022-09-03T16:42:02;23.40;56.30
10980;DHT22;5543;51.734;8.744;2022-09-03T16:44:45;23.30;58.20